createdAt,value
2022-11-08T00:00:14.687Z,3.25
2022-11-08T00:02:41.546Z,3.60
2022-11-08T00:05:27.305Z,3.50
2022-11-08T00:08:12.389Z,3.38
2022-11-08T00:10:57.598Z,3.45
2022-11-08T00:13:42.763Z,3.00
2022-11-08T00:16:09.521Z,2.38
2022-11-08T00:18:36.256Z,3.75
2022-11-08T00:21:03.811Z,2.72
2022-11-08T00:23:30.621Z,3.10
2022-11-08T00:25:57.576Z,3.45
2022-11-08T00:28:24.303Z,2.50
2022-11-08T00:30:51.000Z,3.38
2022-11-08T00:33:17.727Z,3.17
2022-11-08T00:35:44.472Z,4.00
2022-11-08T00:38:11.200Z,2.78
2022-11-08T00:40:38.056Z,3.53
2022-11-08T00:43:04.753Z,3.63
2022-11-08T00:45:31.499Z,2.90
2022-11-08T00:47:58.232Z,2.88
2022-11-08T00:50:24.974Z,3.95
2022-11-08T00:52:51.700Z,2.45
2022-11-08T00:55:18.413Z,4.03
2022-11-08T00:58:00.592Z,2.50
2022-11-08T01:00:28.427Z,3.03
2022-11-08T01:03:13.508Z,2.35
2022-11-08T01:05:40.333Z,3.75
2022-11-08T01:08:07.223Z,2.63
2022-11-08T01:10:34.111Z,3.13
2022-11-08T01:13:00.889Z,2.83
2022-11-08T01:15:27.808Z,2.15
2022-11-08T01:17:54.645Z,2.42
2022-11-08T01:20:21.429Z,2.58
2022-11-08T01:22:48.127Z,2.72
2022-11-08T01:25:14.952Z,3.15
2022-11-08T01:27:43.585Z,2.35
2022-11-08T01:30:11.141Z,2.38
2022-11-08T01:32:38.272Z,2.88
2022-11-08T01:35:06.276Z,3.05
2022-11-08T01:37:33.066Z,3.50
2022-11-08T01:39:59.810Z,2.53
2022-11-08T01:42:30.698Z,2.40
2022-11-08T01:45:10.155Z,2.42
2022-11-08T01:47:36.881Z,2.20
2022-11-08T01:50:11.914Z,2.30
2022-11-08T01:52:54.220Z,2.13
2022-11-08T01:55:30.219Z,2.55
2022-11-08T01:58:03.129Z,2.45
2022-11-08T02:00:30.096Z,2.53
2022-11-08T02:03:02.041Z,2.90
2022-11-08T02:05:30.761Z,2.60
2022-11-08T02:08:04.639Z,2.22
2022-11-08T02:10:41.220Z,1.75
2022-11-08T02:13:14.962Z,2.47
2022-11-08T02:15:43.217Z,2.45
2022-11-08T02:18:10.885Z,2.35
2022-11-08T02:20:37.778Z,3.25
2022-11-08T02:23:40.771Z,2.50
2022-11-08T02:26:07.583Z,2.53
2022-11-08T02:28:46.907Z,3.40
2022-11-08T02:31:17.032Z,2.60
2022-11-08T02:33:45.218Z,2.65
2022-11-08T02:36:16.497Z,2.10
2022-11-08T02:38:49.102Z,2.47
2022-11-08T02:41:15.817Z,1.65
2022-11-08T02:43:42.641Z,2.58
2022-11-08T02:46:09.493Z,3.35
2022-11-08T02:48:36.282Z,2.13
2022-11-08T02:51:03.077Z,2.90
2022-11-08T02:53:29.861Z,2.33
2022-11-08T02:55:56.681Z,2.38
2022-11-08T02:58:23.728Z,2.15
2022-11-08T03:00:50.460Z,2.42
2022-11-08T03:03:17.177Z,2.30
2022-11-08T03:05:43.997Z,1.70
2022-11-08T03:08:10.712Z,2.55
2022-11-08T03:10:37.457Z,2.05
2022-11-08T03:13:06.339Z,1.75
2022-11-08T03:15:33.612Z,2.28
2022-11-08T03:18:02.263Z,3.13
2022-11-08T03:20:33.073Z,2.70
2022-11-08T03:23:06.785Z,1.90
2022-11-08T03:25:34.480Z,2.53
2022-11-08T03:28:06.499Z,3.17
2022-11-08T03:30:34.509Z,2.20
2022-11-08T03:33:02.117Z,2.85
2022-11-08T03:35:29.193Z,2.45
2022-11-08T03:37:57.231Z,2.33
2022-11-08T03:40:25.487Z,1.90
2022-11-08T03:42:52.457Z,1.75
2022-11-08T03:45:19.264Z,3.25
2022-11-08T03:47:47.665Z,2.17
2022-11-08T03:50:16.356Z,2.30
2022-11-08T03:52:52.452Z,2.55
2022-11-08T03:55:22.038Z,2.63
2022-11-08T03:57:50.235Z,2.65
2022-11-08T04:00:26.308Z,2.10
2022-11-08T04:02:55.141Z,1.20
2022-11-08T04:05:21.969Z,1.33
2022-11-08T04:07:49.071Z,2.67
2022-11-08T04:10:17.960Z,2.33
2022-11-08T04:13:03.567Z,2.08
2022-11-08T04:15:31.415Z,1.90
2022-11-08T04:18:17.881Z,1.80
2022-11-08T04:21:06.622Z,1.75
2022-11-08T04:23:36.107Z,2.58
2022-11-08T04:26:07.270Z,2.10
2022-11-08T04:28:35.917Z,2.03
2022-11-08T04:31:11.032Z,1.65
2022-11-08T04:33:37.881Z,1.55
2022-11-08T04:36:09.152Z,2.05
2022-11-08T04:38:36.026Z,1.98
2022-11-08T04:41:06.824Z,2.55
2022-11-08T04:43:34.258Z,1.33
2022-11-08T04:46:14.047Z,1.80
2022-11-08T04:48:42.121Z,1.95
2022-11-08T04:51:16.669Z,1.88
2022-11-08T04:53:43.463Z,2.15
2022-11-08T04:56:16.735Z,1.67
2022-11-08T04:58:49.272Z,2.20
2022-11-08T05:01:20.301Z,1.70
2022-11-08T05:03:49.579Z,1.27
2022-11-08T05:06:23.937Z,2.13
2022-11-08T05:08:50.727Z,1.83
2022-11-08T05:11:22.140Z,2.10
2022-11-08T05:13:50.648Z,1.70
2022-11-08T05:16:29.419Z,1.98
2022-11-08T05:18:57.084Z,1.50
2022-11-08T05:21:43.131Z,1.85
2022-11-08T05:24:14.926Z,1.70
2022-11-08T05:26:44.248Z,2.35
2022-11-08T05:29:12.991Z,1.60
2022-11-08T05:31:39.723Z,2.22
2022-11-08T05:34:07.732Z,1.95
2022-11-08T05:36:34.650Z,1.70
2022-11-08T05:39:01.404Z,2.78
2022-11-08T05:41:28.198Z,2.78
2022-11-08T05:43:55.986Z,2.03
2022-11-08T05:46:24.054Z,1.65
2022-11-08T05:48:51.318Z,1.80
2022-11-08T05:51:19.966Z,1.60
2022-11-08T05:53:48.759Z,2.53
2022-11-08T05:56:16.741Z,2.90
2022-11-08T05:58:44.090Z,2.95
2022-11-08T06:01:19.437Z,2.78
2022-11-08T06:03:48.115Z,2.60
2022-11-08T06:06:20.635Z,2.28
2022-11-08T06:08:50.615Z,2.78
2022-11-08T06:11:22.125Z,2.95
2022-11-08T06:13:49.198Z,1.90
2022-11-08T06:16:18.794Z,1.73
2022-11-08T06:18:45.775Z,2.10
2022-11-08T06:21:18.175Z,2.28
2022-11-08T06:23:47.460Z,1.63
2022-11-08T06:26:14.332Z,2.33
2022-11-08T06:28:41.476Z,2.08
2022-11-08T06:31:08.398Z,2.78
2022-11-08T06:33:35.537Z,2.25
2022-11-08T06:36:02.462Z,1.63
2022-11-08T06:38:29.854Z,1.90
2022-11-08T06:41:00.220Z,1.92
2022-11-08T06:43:27.452Z,1.45
2022-11-08T06:45:54.467Z,1.58
2022-11-08T06:48:21.200Z,1.90
2022-11-08T06:50:48.582Z,1.52
2022-11-08T06:53:15.866Z,1.30
2022-11-08T06:55:42.854Z,1.65
2022-11-08T06:58:11.030Z,1.55
2022-11-08T07:00:38.400Z,3.10
2022-11-08T07:03:05.198Z,1.73
2022-11-08T07:05:34.807Z,2.67
2022-11-08T07:08:04.264Z,2.85
2022-11-08T07:10:32.640Z,4.25
2022-11-08T07:13:13.769Z,2.63
2022-11-08T07:15:42.364Z,3.25
2022-11-08T07:18:14.323Z,3.30
2022-11-08T07:20:41.738Z,4.00
2022-11-08T07:23:12.201Z,3.08
2022-11-08T07:25:39.150Z,2.53
2022-11-08T07:28:08.464Z,3.45
2022-11-08T07:30:35.915Z,2.45
2022-11-08T07:33:03.561Z,2.50
2022-11-08T07:35:30.360Z,2.67
2022-11-08T07:37:57.415Z,2.67
2022-11-08T07:40:24.748Z,4.05
2022-11-08T07:45:38.479Z,3.55
2022-11-08T07:48:11.898Z,3.40
2022-11-08T07:50:41.340Z,3.63
2022-11-08T07:53:09.086Z,3.13
2022-11-08T07:55:37.652Z,3.60
2022-11-08T07:58:05.903Z,3.83
2022-11-08T08:00:36.657Z,4.32
2022-11-08T08:03:07.181Z,3.85
2022-11-08T08:05:37.917Z,4.28
2022-11-08T08:08:05.802Z,5.18
2022-11-08T08:10:32.816Z,4.20
2022-11-08T08:12:59.572Z,5.05
2022-11-08T08:15:26.706Z,5.05
2022-11-08T08:17:53.528Z,5.53
2022-11-08T08:20:20.361Z,4.82
2022-11-08T08:22:49.374Z,4.50
2022-11-08T08:25:17.460Z,5.25
2022-11-08T08:27:52.585Z,4.93
2022-11-08T08:30:20.255Z,4.07
2022-11-08T08:33:02.149Z,3.95
2022-11-08T08:35:36.650Z,3.78
2022-11-08T08:38:05.136Z,3.42
2022-11-08T08:40:32.941Z,3.63
2022-11-08T08:43:01.105Z,3.63
2022-11-08T08:45:28.966Z,3.53
2022-11-08T08:47:57.909Z,2.65
2022-11-08T08:50:27.738Z,3.58
2022-11-08T08:53:02.737Z,3.83
2022-11-08T08:55:30.695Z,3.92
2022-11-08T08:57:58.123Z,3.40
2022-11-08T09:03:13.050Z,4.60
2022-11-08T09:05:46.778Z,5.05
2022-11-08T09:08:14.692Z,3.97
2022-11-08T09:10:42.375Z,5.63
2022-11-08T09:13:09.206Z,5.18
2022-11-08T09:15:36.086Z,4.40
2022-11-08T09:18:03.197Z,3.97
2022-11-08T09:20:30.172Z,3.88
2022-11-08T09:23:02.832Z,4.95
2022-11-08T09:25:30.135Z,4.13
2022-11-08T09:27:57.061Z,4.63
2022-11-08T09:30:23.841Z,3.15
2022-11-08T09:33:00.889Z,4.38
2022-11-08T09:35:29.322Z,5.07
2022-11-08T09:37:57.210Z,5.05
2022-11-08T09:40:49.055Z,5.65
2022-11-08T09:43:46.499Z,4.90
2022-11-08T09:46:25.806Z,4.75
2022-11-08T09:48:55.434Z,6.88
2022-11-08T09:51:24.925Z,6.25
2022-11-08T09:53:58.928Z,7.20
2022-11-08T09:56:28.973Z,6.47
2022-11-08T09:59:12.988Z,4.82
2022-11-08T10:01:40.257Z,4.07
2022-11-08T10:04:18.045Z,5.57
2022-11-08T10:07:03.493Z,3.85
2022-11-08T10:09:58.993Z,3.25
2022-11-08T10:13:14.872Z,6.10
2022-11-08T10:16:25.329Z,5.13
2022-11-08T10:19:07.258Z,5.25
2022-11-08T10:21:58.878Z,8.68
2022-11-08T10:24:56.049Z,5.07
2022-11-08T10:27:37.162Z,4.30
2022-11-08T10:30:16.353Z,4.70
2022-11-08T10:32:43.534Z,5.68
2022-11-08T10:35:13.313Z,4.63
2022-11-08T10:37:43.874Z,3.47
2022-11-08T10:40:40.249Z,4.50
2022-11-08T10:43:22.250Z,4.95
2022-11-08T10:45:49.166Z,6.38
2022-11-08T10:48:16.276Z,5.80
2022-11-08T10:50:48.682Z,7.03
2022-11-08T10:53:26.024Z,6.20
2022-11-08T10:56:01.018Z,4.88
2022-11-08T10:58:33.485Z,3.13
2022-11-08T11:01:18.298Z,3.42
2022-11-08T11:03:47.544Z,2.58
2022-11-08T11:06:33.013Z,1.90
2022-11-08T11:09:18.362Z,2.00
2022-11-08T11:11:45.823Z,1.52
2022-11-08T11:14:22.504Z,1.55
2022-11-08T11:17:01.260Z,1.75
2022-11-08T11:19:29.956Z,2.00
2022-11-08T11:22:07.802Z,2.22
2022-11-08T11:24:37.613Z,2.03
2022-11-08T11:27:07.475Z,2.10
2022-11-08T11:29:39.349Z,2.30
2022-11-08T11:32:34.540Z,2.20
2022-11-08T11:35:04.774Z,2.03
2022-11-08T11:37:45.869Z,2.25
2022-11-08T11:40:39.371Z,1.55
2022-11-08T11:46:48.544Z,2.03
2022-11-08T11:49:21.189Z,2.85
2022-11-08T11:51:48.080Z,1.92
2022-11-08T11:54:16.623Z,1.65
2022-11-08T11:56:48.844Z,1.45
2022-11-08T11:59:36.803Z,2.67
2022-11-08T12:02:21.688Z,2.78
2022-11-08T12:04:56.740Z,2.22
2022-11-08T12:07:29.777Z,2.67
2022-11-08T12:13:07.681Z,2.42
2022-11-08T12:16:04.230Z,2.83
2022-11-08T12:19:05.396Z,2.22
2022-11-08T12:22:08.296Z,1.95
2022-11-08T12:25:10.871Z,2.00
2022-11-08T12:27:56.498Z,1.67
2022-11-08T12:30:57.391Z,2.03
2022-11-08T12:33:59.545Z,2.33
2022-11-08T12:36:42.481Z,2.38
2022-11-08T12:39:27.277Z,2.65
2022-11-08T12:42:09.763Z,2.58
2022-11-08T12:45:02.102Z,2.50
2022-11-08T12:47:53.341Z,2.30
2022-11-08T12:50:25.951Z,2.10
2022-11-08T12:53:04.540Z,2.50
2022-11-08T12:55:37.185Z,2.30
2022-11-08T12:58:35.921Z,1.67
2022-11-08T13:01:08.189Z,2.08
2022-11-08T13:03:46.947Z,2.25
2022-11-08T13:06:38.995Z,2.10
2022-11-08T13:09:35.778Z,1.95
2022-11-08T13:12:16.685Z,2.97
2022-11-08T13:14:43.581Z,2.55
2022-11-08T13:17:26.268Z,2.13
2022-11-08T13:20:03.657Z,2.67
2022-11-08T13:22:31.356Z,1.98
2022-11-08T13:25:00.638Z,2.15
2022-11-08T13:27:38.272Z,2.20
2022-11-08T13:30:17.094Z,2.03
2022-11-08T13:32:43.761Z,2.17
2022-11-08T13:35:34.234Z,2.20
2022-11-08T13:38:29.628Z,4.80
2022-11-08T13:41:25.554Z,2.28
2022-11-08T13:43:55.656Z,3.00
2022-11-08T13:46:22.995Z,2.20
2022-11-08T13:49:01.135Z,2.33
2022-11-08T13:51:41.683Z,2.67
2022-11-08T13:54:23.487Z,2.78
2022-11-08T13:57:01.454Z,2.53
2022-11-08T13:59:30.899Z,3.28
2022-11-08T14:02:23.499Z,3.03
2022-11-08T14:04:51.082Z,3.27
2022-11-08T14:07:48.747Z,2.67
2022-11-08T14:10:27.354Z,2.45
2022-11-08T14:13:27.174Z,2.38
2022-11-08T14:15:58.859Z,2.17
2022-11-08T14:18:32.618Z,2.30
2022-11-08T14:20:59.930Z,1.65
2022-11-08T14:23:29.542Z,2.28
2022-11-08T14:26:00.263Z,2.10
2022-11-08T14:28:39.793Z,2.10
2022-11-08T14:31:31.950Z,2.40
2022-11-08T14:34:00.309Z,2.40
2022-11-08T14:36:29.956Z,2.38
2022-11-08T14:39:15.252Z,2.00
2022-11-08T14:41:47.202Z,2.13
2022-11-08T14:44:16.282Z,2.10
2022-11-08T14:46:43.134Z,2.70
2022-11-08T14:49:20.654Z,2.38
2022-11-08T14:51:48.005Z,2.35
2022-11-08T14:54:21.322Z,2.70
2022-11-08T14:56:50.466Z,2.95
2022-11-08T14:59:18.093Z,2.10
2022-11-08T15:01:49.179Z,3.15
2022-11-08T15:04:23.138Z,2.80
2022-11-08T15:06:55.591Z,3.05
2022-11-08T15:09:27.837Z,3.63
2022-11-08T15:12:08.137Z,2.30
2022-11-08T15:14:37.030Z,2.47
2022-11-08T15:17:04.184Z,3.05
2022-11-08T15:19:45.825Z,3.15
2022-11-08T15:22:23.592Z,3.13
2022-11-08T15:25:24.116Z,2.58
2022-11-08T15:27:57.165Z,1.40
2022-11-08T15:32:56.930Z,2.50
2022-11-08T15:35:24.813Z,3.17
2022-11-08T15:37:52.927Z,2.08
2022-11-08T15:40:28.425Z,1.80
2022-11-08T15:42:55.212Z,2.22
2022-11-08T15:45:35.255Z,2.35
2022-11-08T15:48:12.884Z,2.65
2022-11-08T15:50:39.803Z,3.55
2022-11-08T15:53:06.717Z,2.38
2022-11-08T15:55:38.545Z,2.53
2022-11-08T15:58:12.820Z,2.22
2022-11-08T16:00:46.492Z,2.50
2022-11-08T16:03:13.251Z,4.13
2022-11-08T16:05:39.986Z,2.80
2022-11-08T16:08:06.721Z,2.60
2022-11-08T16:10:45.845Z,1.83
2022-11-08T16:13:30.025Z,3.22
2022-11-08T16:15:58.224Z,2.60
2022-11-08T16:18:25.230Z,2.97
2022-11-08T16:20:52.077Z,3.08
2022-11-08T16:23:19.486Z,3.58
2022-11-08T16:25:47.120Z,3.58
2022-11-08T16:28:38.379Z,4.03
2022-11-08T16:31:14.545Z,4.03
2022-11-08T16:33:44.591Z,5.82
2022-11-08T16:36:19.161Z,7.32
2022-11-08T16:38:57.546Z,6.43
2022-11-08T16:41:25.823Z,6.25
2022-11-08T16:43:53.248Z,5.88
2022-11-08T16:46:21.639Z,2.90
2022-11-08T16:48:57.329Z,3.75
2022-11-08T16:51:25.563Z,3.50
2022-11-08T16:53:53.089Z,3.55
2022-11-08T16:56:20.366Z,2.80
2022-11-08T16:58:47.437Z,3.17
2022-11-08T17:01:19.396Z,3.03
2022-11-08T17:03:46.421Z,2.72
2022-11-08T17:06:18.330Z,2.28
2022-11-08T17:08:46.585Z,2.20
2022-11-08T17:11:19.816Z,2.22
2022-11-08T17:13:47.739Z,3.10
2022-11-08T17:16:15.701Z,2.35
2022-11-08T17:18:42.677Z,3.55
2022-11-08T17:21:38.244Z,2.25
2022-11-08T17:23:59.155Z,1.75
2022-11-08T17:26:26.818Z,1.55
2022-11-08T17:28:56.660Z,2.90
2022-11-08T17:31:23.573Z,2.13
2022-11-08T17:33:50.392Z,4.20
2022-11-08T17:36:17.170Z,2.90
2022-11-08T17:38:43.971Z,8.77
2022-11-08T17:41:15.415Z,4.78
2022-11-08T17:43:43.477Z,2.70
2022-11-08T17:46:11.309Z,1.52
2022-11-08T17:48:39.194Z,1.73
2022-11-08T17:51:06.828Z,1.83
2022-11-08T17:53:34.565Z,2.72
2022-11-08T17:56:04.993Z,4.95
2022-11-08T17:58:34.106Z,3.53
2022-11-08T18:01:04.730Z,3.20
2022-11-08T18:03:32.855Z,4.57
2022-11-08T18:06:05.904Z,3.90
2022-11-08T18:08:34.722Z,4.65
2022-11-08T18:11:02.321Z,4.45
2022-11-08T18:13:29.880Z,4.28
2022-11-08T18:16:09.895Z,2.92
2022-11-08T18:18:37.010Z,2.58
2022-11-08T18:21:05.480Z,2.35
2022-11-08T18:23:32.575Z,2.95
2022-11-08T18:25:59.905Z,3.88
2022-11-08T18:28:27.392Z,4.45
2022-11-08T18:31:05.952Z,5.53
2022-11-08T18:33:33.022Z,9.20
2022-11-08T18:36:24.864Z,6.32
2022-11-08T18:38:52.538Z,7.55
2022-11-08T18:41:25.284Z,8.05
2022-11-08T18:43:52.693Z,9.98
2022-11-08T18:46:22.443Z,10.95
2022-11-08T18:48:50.439Z,7.03
2022-11-08T18:51:20.297Z,5.75
2022-11-08T18:53:48.352Z,6.28
2022-11-08T18:56:15.438Z,5.68
2022-11-08T18:58:44.564Z,6.47
2022-11-08T19:01:11.394Z,8.63
2022-11-08T19:03:38.383Z,9.18
2022-11-08T19:06:05.511Z,9.23
2022-11-08T19:08:33.292Z,10.23
2022-11-08T19:11:09.942Z,7.35
2022-11-08T19:13:38.982Z,7.80
2022-11-08T19:16:13.075Z,10.32
2022-11-08T19:18:40.873Z,7.15
2022-11-08T19:21:18.385Z,10.00
2022-11-08T19:23:46.104Z,8.73
2022-11-08T19:26:22.469Z,7.78
2022-11-08T19:28:51.568Z,6.22
2022-11-08T19:31:21.718Z,6.65
2022-11-08T19:33:51.719Z,6.07
2022-11-08T19:36:25.680Z,6.75
2022-11-08T19:38:54.963Z,7.05
2022-11-08T19:41:24.765Z,7.35
2022-11-08T19:43:52.148Z,8.45
2022-11-08T19:46:26.135Z,6.43
2022-11-08T19:48:53.465Z,6.45
2022-11-08T19:51:24.009Z,5.95
2022-11-08T19:53:54.449Z,6.97
2022-11-08T19:56:29.207Z,5.70
2022-11-08T19:59:04.979Z,4.80
2022-11-08T20:01:42.255Z,4.88
2022-11-08T20:04:11.236Z,5.82
2022-11-08T20:06:38.928Z,6.35
2022-11-08T20:09:06.125Z,4.40
2022-11-08T20:11:36.577Z,6.45
2022-11-08T20:14:04.972Z,4.15
2022-11-08T20:16:40.079Z,6.00
2022-11-08T20:19:14.366Z,4.13
2022-11-08T20:21:42.638Z,4.50
2022-11-08T20:24:11.186Z,3.30
2022-11-08T20:26:39.282Z,3.83
2022-11-08T20:29:07.374Z,3.30
2022-11-08T20:31:35.035Z,3.25
2022-11-08T20:34:05.753Z,2.78
2022-11-08T20:36:35.477Z,5.13
2022-11-08T20:39:06.982Z,7.68
2022-11-08T20:41:37.430Z,6.93
2022-11-08T20:44:05.903Z,3.42
2022-11-08T20:46:33.265Z,2.13
2022-11-08T20:49:01.155Z,2.17
2022-11-08T20:51:30.084Z,2.00
2022-11-08T20:53:58.206Z,2.10
2022-11-08T20:56:25.591Z,2.28
2022-11-08T20:58:53.593Z,2.92
2022-11-08T21:01:24.368Z,1.30
2022-11-08T21:03:52.642Z,2.67
2022-11-08T21:06:24.980Z,3.90
2022-11-08T21:09:05.778Z,3.78
2022-11-08T21:11:39.346Z,3.03
2022-11-08T21:14:06.275Z,3.13
2022-11-08T21:16:53.158Z,2.80
2022-11-08T21:19:23.925Z,1.90
2022-11-08T21:21:50.640Z,1.95
2022-11-08T21:24:17.461Z,1.83
2022-11-08T21:26:44.219Z,1.92
2022-11-08T21:29:10.959Z,2.00
2022-11-08T21:31:37.806Z,2.33
2022-11-08T21:34:04.549Z,2.00
2022-11-08T21:36:31.343Z,1.73
2022-11-08T21:38:58.141Z,5.13
2022-11-08T21:41:24.922Z,3.53
2022-11-08T21:43:51.659Z,2.95
2022-11-08T21:46:24.702Z,2.60
2022-11-08T21:51:29.375Z,2.22
2022-11-08T21:53:58.559Z,2.42
2022-11-08T21:56:29.851Z,2.45
2022-11-08T21:58:57.298Z,2.38
2022-11-08T22:01:29.844Z,2.00
2022-11-08T22:03:58.654Z,2.67
2022-11-08T22:06:25.613Z,2.47
2022-11-08T22:08:52.408Z,2.38
2022-11-08T22:11:21.785Z,1.88
2022-11-08T22:13:48.490Z,2.45
2022-11-08T22:16:15.326Z,2.50
2022-11-08T22:19:03.505Z,2.50
2022-11-08T22:21:43.309Z,2.28
2022-11-08T22:24:20.308Z,3.60
2022-11-08T22:26:48.488Z,1.95
2022-11-08T22:29:16.223Z,2.55
2022-11-08T22:31:43.409Z,2.83
2022-11-08T22:34:11.024Z,2.67
2022-11-08T22:36:44.419Z,1.92
2022-11-08T22:39:17.443Z,2.85
2022-11-08T22:41:45.579Z,3.50
2022-11-08T22:44:13.155Z,2.95
2022-11-08T22:46:41.870Z,3.30
2022-11-08T22:49:09.898Z,3.72
2022-11-08T22:51:36.745Z,3.28
2022-11-08T22:54:03.865Z,3.50
2022-11-08T22:56:30.634Z,3.08
2022-11-08T22:58:57.521Z,2.45
2022-11-08T23:01:25.504Z,2.03
2022-11-08T23:03:52.243Z,2.40
2022-11-08T23:06:19.037Z,2.80
2022-11-08T23:08:47.660Z,2.97
2022-11-08T23:11:33.364Z,3.47
2022-11-08T23:14:18.947Z,2.65
2022-11-08T23:16:46.586Z,3.13
2022-11-08T23:19:38.676Z,3.50
2022-11-08T23:22:30.592Z,4.97
2022-11-08T23:24:57.406Z,3.90
2022-11-08T23:27:43.541Z,4.28
2022-11-08T23:30:33.800Z,4.13
2022-11-08T23:33:00.825Z,4.10
2022-11-08T23:35:27.585Z,2.97
2022-11-08T23:37:55.352Z,4.15
2022-11-08T23:40:40.907Z,3.10
2022-11-08T23:43:37.397Z,2.83
2022-11-08T23:46:10.864Z,2.42
2022-11-08T23:48:40.080Z,3.58
2022-11-08T23:51:07.752Z,3.65
2022-11-08T23:53:37.267Z,5.00
2022-11-08T23:56:05.340Z,3.90
2022-11-08T23:58:33.077Z,2.83
